sensor_id;sensor_type;location;lat;lon;timestamp;temperature;humidity
53045;DHT22;38930;52.766;6.884;2022-11-12T00:01:13;4.80;99.90
53045;DHT22;38930;52.766;6.884;2022-11-12T00:03:38;5.00;99.90
53045;DHT22;38930;52.766;6.884;2022-11-12T00:06:04;4.90;99.90
53045;DHT22;38930;52.766;6.884;2022-11-12T00:08:29;5.30;99.90
53045;DHT22;38930;52.766;6.884;2022-11-12T00:10:55;4.90;99.90
53045;DHT22;38930;52.766;6.884;2022-11-12T00:13:21;4.80;99.90
53045;DHT22;38930;52.766;6.884;2022-11-12T00:15:46;4.30;99.90
53045;DHT22;38930;52.766;6.884;2022-11-12T00:18:12;4.10;99.90
53045;DHT22;38930;52.766;6.884;2022-11-12T00:20:38;4.20;99.90
53045;DHT22;38930;52.766;6.884;2022-11-12T00:23:03;5.40;99.90
53045;DHT22;38930;52.766;6.884;2022-11-12T00:25:29;4.80;99.90
53045;DHT22;38930;52.766;6.884;2022-11-12T00:28:06;4.80;99.90
53045;DHT22;38930;52.766;6.884;2022-11-12T00:30:33;5.20;99.90
53045;DHT22;38930;52.766;6.884;2022-11-12T00:33:02;5.10;99.90
53045;DHT22;38930;52.766;6.884;2022-11-12T00:35:29;5.40;99.90
53045;DHT22;38930;52.766;6.884;2022-11-12T00:37:56;4.90;99.90
53045;DHT22;38930;52.766;6.884;2022-11-12T00:40:23;5.30;99.90
53045;DHT22;38930;52.766;6.884;2022-11-12T00:42:50;4.80;99.90
53045;DHT22;38930;52.766;6.884;2022-11-12T00:45:17;5.00;99.90
53045;DHT22;38930;52.766;6.884;2022-11-12T00:47:43;4.90;99.90
53045;DHT22;38930;52.766;6.884;2022-11-12T00:50:09;4.80;99.90
53045;DHT22;38930;52.766;6.884;2022-11-12T00:52:35;4.90;99.90
53045;DHT22;38930;52.766;6.884;2022-11-12T00:55:00;4.80;99.90
53045;DHT22;38930;52.766;6.884;2022-11-12T00:57:26;5.50;99.90
53045;DHT22;38930;52.766;6.884;2022-11-12T00:59:51;4.70;99.90
53045;DHT22;38930;52.766;6.884;2022-11-12T01:02:17;4.70;99.90
53045;DHT22;38930;52.766;6.884;2022-11-12T01:04:44;4.70;99.90
53045;DHT22;38930;52.766;6.884;2022-11-12T01:07:10;4.40;99.90
53045;DHT22;38930;52.766;6.884;2022-11-12T01:09:35;4.70;99.90
53045;DHT22;38930;52.766;6.884;2022-11-12T01:12:01;4.60;99.90
53045;DHT22;38930;52.766;6.884;2022-11-12T01:14:27;4.60;99.90
53045;DHT22;38930;52.766;6.884;2022-11-12T01:16:52;4.60;99.90
53045;DHT22;38930;52.766;6.884;2022-11-12T01:19:18;5.70;99.90
53045;DHT22;38930;52.766;6.884;2022-11-12T01:21:44;4.50;99.90
53045;DHT22;38930;52.766;6.884;2022-11-12T01:24:10;4.50;99.90
53045;DHT22;38930;52.766;6.884;2022-11-12T01:26:36;4.40;99.90
53045;DHT22;38930;52.766;6.884;2022-11-12T01:29:02;4.50;99.90
53045;DHT22;38930;52.766;6.884;2022-11-12T01:31:34;4.30;99.90
53045;DHT22;38930;52.766;6.884;2022-11-12T01:34:02;4.40;99.90
53045;DHT22;38930;52.766;6.884;2022-11-12T01:36:35;4.40;99.90
53045;DHT22;38930;52.766;6.884;2022-11-12T01:39:01;4.40;99.90
53045;DHT22;38930;52.766;6.884;2022-11-12T01:41:29;4.40;99.90
53045;DHT22;38930;52.766;6.884;2022-11-12T01:44:19;4.40;99.90
53045;DHT22;38930;52.766;6.884;2022-11-12T01:49:41;5.30;99.90
53045;DHT22;38930;52.766;6.884;2022-11-12T01:52:14;3.50;99.90
53045;DHT22;38930;52.766;6.884;2022-11-12T01:54:42;4.50;99.90
53045;DHT22;38930;52.766;6.884;2022-11-12T01:57:12;4.30;99.90
53045;DHT22;38930;52.766;6.884;2022-11-12T01:59:39;4.30;99.90
53045;DHT22;38930;52.766;6.884;2022-11-12T02:02:06;4.50;99.90
53045;DHT22;38930;52.766;6.884;2022-11-12T02:04:33;4.30;99.90
53045;DHT22;38930;52.766;6.884;2022-11-12T02:07:01;4.20;99.90
53045;DHT22;38930;52.766;6.884;2022-11-12T02:09:28;4.30;99.90
53045;DHT22;38930;52.766;6.884;2022-11-12T02:11:55;4.30;99.90
53045;DHT22;38930;52.766;6.884;2022-11-12T02:14:20;4.30;99.90
53045;DHT22;38930;52.766;6.884;2022-11-12T02:16:47;4.20;99.90
53045;DHT22;38930;52.766;6.884;2022-11-12T02:19:14;4.40;99.90
53045;DHT22;38930;52.766;6.884;2022-11-12T02:21:40;3.80;99.90
53045;DHT22;38930;52.766;6.884;2022-11-12T02:26:41;3.40;99.90
53045;DHT22;38930;52.766;6.884;2022-11-12T02:29:09;4.00;99.90
53045;DHT22;38930;52.766;6.884;2022-11-12T02:31:35;4.30;99.90
53045;DHT22;38930;52.766;6.884;2022-11-12T02:34:01;4.10;99.90
53045;DHT22;38930;52.766;6.884;2022-11-12T02:36:27;4.00;99.90
53045;DHT22;38930;52.766;6.884;2022-11-12T02:38:53;5.70;99.90
53045;DHT22;38930;52.766;6.884;2022-11-12T02:41:18;3.20;99.90
53045;DHT22;38930;52.766;6.884;2022-11-12T02:43:44;3.80;99.90
53045;DHT22;38930;52.766;6.884;2022-11-12T02:46:10;3.20;99.90
53045;DHT22;38930;52.766;6.884;2022-11-12T02:48:36;3.90;99.90
53045;DHT22;38930;52.766;6.884;2022-11-12T02:51:02;4.00;99.90
53045;DHT22;38930;52.766;6.884;2022-11-12T02:53:27;4.00;99.90
53045;DHT22;38930;52.766;6.884;2022-11-12T02:55:53;3.90;99.90
53045;DHT22;38930;52.766;6.884;2022-11-12T02:58:19;3.80;99.90
53045;DHT22;38930;52.766;6.884;2022-11-12T03:00:47;3.80;99.90
53045;DHT22;38930;52.766;6.884;2022-11-12T03:03:13;3.80;99.90
53045;DHT22;38930;52.766;6.884;2022-11-12T03:05:39;4.20;99.90
53045;DHT22;38930;52.766;6.884;2022-11-12T03:08:06;3.50;99.90
53045;DHT22;38930;52.766;6.884;2022-11-12T03:10:32;3.90;99.90
53045;DHT22;38930;52.766;6.884;2022-11-12T03:12:59;3.80;99.90
53045;DHT22;38930;52.766;6.884;2022-11-12T03:15:27;5.10;99.90
53045;DHT22;38930;52.766;6.884;2022-11-12T03:17:52;3.70;99.90
53045;DHT22;38930;52.766;6.884;2022-11-12T03:20:18;3.80;99.90
53045;DHT22;38930;52.766;6.884;2022-11-12T03:22:55;3.30;99.90
53045;DHT22;38930;52.766;6.884;2022-11-12T03:25:21;3.60;99.90
53045;DHT22;38930;52.766;6.884;2022-11-12T03:27:46;3.80;99.90
53045;DHT22;38930;52.766;6.884;2022-11-12T03:30:12;3.70;99.90
53045;DHT22;38930;52.766;6.884;2022-11-12T03:32:38;3.70;99.90
53045;DHT22;38930;52.766;6.884;2022-11-12T03:35:03;3.70;99.90
53045;DHT22;38930;52.766;6.884;2022-11-12T03:37:29;3.80;99.90
53045;DHT22;38930;52.766;6.884;2022-11-12T03:39:55;3.70;99.90
53045;DHT22;38930;52.766;6.884;2022-11-12T03:42:20;3.80;99.90
53045;DHT22;38930;52.766;6.884;2022-11-12T03:44:46;3.80;99.90
53045;DHT22;38930;52.766;6.884;2022-11-12T03:47:11;4.50;99.90
53045;DHT22;38930;52.766;6.884;2022-11-12T03:49:37;3.80;99.90
53045;DHT22;38930;52.766;6.884;2022-11-12T03:52:03;3.20;99.90
53045;DHT22;38930;52.766;6.884;2022-11-12T03:54:28;3.70;99.90
53045;DHT22;38930;52.766;6.884;2022-11-12T03:56:54;3.60;99.90
53045;DHT22;38930;52.766;6.884;2022-11-12T03:59:19;3.30;99.90
53045;DHT22;38930;52.766;6.884;2022-11-12T04:01:45;3.80;99.90
53045;DHT22;38930;52.766;6.884;2022-11-12T04:04:10;3.80;99.90
53045;DHT22;38930;52.766;6.884;2022-11-12T04:06:36;3.80;99.90
53045;DHT22;38930;52.766;6.884;2022-11-12T04:09:20;3.70;99.90
53045;DHT22;38930;52.766;6.884;2022-11-12T04:11:46;3.80;99.90
53045;DHT22;38930;52.766;6.884;2022-11-12T04:14:11;2.70;99.90
53045;DHT22;38930;52.766;6.884;2022-11-12T04:16:37;3.70;99.90
53045;DHT22;38930;52.766;6.884;2022-11-12T04:19:21;3.70;99.90
53045;DHT22;38930;52.766;6.884;2022-11-12T04:24:35;3.80;99.90
53045;DHT22;38930;52.766;6.884;2022-11-12T04:27:24;3.60;99.90
53045;DHT22;38930;52.766;6.884;2022-11-12T04:29:50;3.70;99.90
53045;DHT22;38930;52.766;6.884;2022-11-12T04:32:37;3.60;99.90
53045;DHT22;38930;52.766;6.884;2022-11-12T04:35:04;3.60;99.90
53045;DHT22;38930;52.766;6.884;2022-11-12T04:37:32;3.70;99.90
53045;DHT22;38930;52.766;6.884;2022-11-12T04:40:19;3.60;99.90
53045;DHT22;38930;52.766;6.884;2022-11-12T04:43:07;3.50;99.90
53045;DHT22;38930;52.766;6.884;2022-11-12T04:45:52;4.00;99.90
53045;DHT22;38930;52.766;6.884;2022-11-12T04:48:20;3.40;99.90
53045;DHT22;38930;52.766;6.884;2022-11-12T04:50:48;3.60;99.90
53045;DHT22;38930;52.766;6.884;2022-11-12T04:53:14;2.80;99.90
53045;DHT22;38930;52.766;6.884;2022-11-12T04:55:40;3.40;99.90
53045;DHT22;38930;52.766;6.884;2022-11-12T04:58:06;3.50;99.90
53045;DHT22;38930;52.766;6.884;2022-11-12T05:00:31;3.30;99.90
53045;DHT22;38930;52.766;6.884;2022-11-12T05:02:57;3.50;99.90
53045;DHT22;38930;52.766;6.884;2022-11-12T05:05:23;3.40;99.90
53045;DHT22;38930;52.766;6.884;2022-11-12T05:07:48;3.30;99.90
53045;DHT22;38930;52.766;6.884;2022-11-12T05:10:14;3.30;99.90
53045;DHT22;38930;52.766;6.884;2022-11-12T05:12:40;3.40;99.90
53045;DHT22;38930;52.766;6.884;2022-11-12T05:15:07;3.40;99.90
53045;DHT22;38930;52.766;6.884;2022-11-12T05:17:33;3.40;99.90
53045;DHT22;38930;52.766;6.884;2022-11-12T05:19:58;2.40;99.90
53045;DHT22;38930;52.766;6.884;2022-11-12T05:22:24;3.50;99.90
53045;DHT22;38930;52.766;6.884;2022-11-12T05:24:49;3.20;99.90
53045;DHT22;38930;52.766;6.884;2022-11-12T05:27:18;3.20;99.90
53045;DHT22;38930;52.766;6.884;2022-11-12T05:29:43;2.90;99.90
53045;DHT22;38930;52.766;6.884;2022-11-12T05:32:14;3.20;99.90
53045;DHT22;38930;52.766;6.884;2022-11-12T05:34:40;3.20;99.90
53045;DHT22;38930;52.766;6.884;2022-11-12T05:37:06;3.10;99.90
53045;DHT22;38930;52.766;6.884;2022-11-12T05:39:33;3.20;99.90
53045;DHT22;38930;52.766;6.884;2022-11-12T05:41:59;3.20;99.90
53045;DHT22;38930;52.766;6.884;2022-11-12T05:44:24;3.10;99.90
53045;DHT22;38930;52.766;6.884;2022-11-12T05:46:50;3.30;99.90
53045;DHT22;38930;52.766;6.884;2022-11-12T05:49:16;3.10;99.90
53045;DHT22;38930;52.766;6.884;2022-11-12T05:51:42;3.30;99.90
53045;DHT22;38930;52.766;6.884;2022-11-12T05:54:08;3.00;99.90
53045;DHT22;38930;52.766;6.884;2022-11-12T05:56:34;3.00;99.90
53045;DHT22;38930;52.766;6.884;2022-11-12T05:59:02;3.50;99.90
53045;DHT22;38930;52.766;6.884;2022-11-12T06:01:28;3.00;99.90
53045;DHT22;38930;52.766;6.884;2022-11-12T06:03:55;2.90;99.90
53045;DHT22;38930;52.766;6.884;2022-11-12T06:06:20;2.90;99.90
53045;DHT22;38930;52.766;6.884;2022-11-12T06:08:46;3.00;99.90
53045;DHT22;38930;52.766;6.884;2022-11-12T06:11:14;3.40;99.90
53045;DHT22;38930;52.766;6.884;2022-11-12T06:13:40;3.10;99.90
53045;DHT22;38930;52.766;6.884;2022-11-12T06:16:06;2.90;99.90
53045;DHT22;38930;52.766;6.884;2022-11-12T06:18:32;3.00;99.90
53045;DHT22;38930;52.766;6.884;2022-11-12T06:21:06;2.90;99.90
53045;DHT22;38930;52.766;6.884;2022-11-12T06:23:49;3.10;99.90
53045;DHT22;38930;52.766;6.884;2022-11-12T06:26:15;2.90;99.90
53045;DHT22;38930;52.766;6.884;2022-11-12T06:28:41;3.00;99.90
53045;DHT22;38930;52.766;6.884;2022-11-12T06:31:06;2.90;99.90
53045;DHT22;38930;52.766;6.884;2022-11-12T06:33:32;2.90;99.90
53045;DHT22;38930;52.766;6.884;2022-11-12T06:35:59;3.30;99.90
53045;DHT22;38930;52.766;6.884;2022-11-12T06:38:37;1.80;99.90
53045;DHT22;38930;52.766;6.884;2022-11-12T06:41:04;2.80;99.90
53045;DHT22;38930;52.766;6.884;2022-11-12T06:43:32;2.90;99.90
53045;DHT22;38930;52.766;6.884;2022-11-12T06:46:06;2.80;99.90
53045;DHT22;38930;52.766;6.884;2022-11-12T06:48:32;2.90;99.90
53045;DHT22;38930;52.766;6.884;2022-11-12T06:50:57;4.00;99.90
53045;DHT22;38930;52.766;6.884;2022-11-12T06:53:29;2.90;99.90
53045;DHT22;38930;52.766;6.884;2022-11-12T06:56:00;3.40;99.90
53045;DHT22;38930;52.766;6.884;2022-11-12T06:58:26;2.90;99.90
53045;DHT22;38930;52.766;6.884;2022-11-12T07:00:51;2.90;99.90
53045;DHT22;38930;52.766;6.884;2022-11-12T07:03:17;2.80;99.90
53045;DHT22;38930;52.766;6.884;2022-11-12T07:05:42;2.90;99.90
53045;DHT22;38930;52.766;6.884;2022-11-12T07:08:08;2.90;99.90
53045;DHT22;38930;52.766;6.884;2022-11-12T07:10:34;2.70;99.90
53045;DHT22;38930;52.766;6.884;2022-11-12T07:12:59;2.70;99.90
53045;DHT22;38930;52.766;6.884;2022-11-12T07:15:25;2.60;99.90
53045;DHT22;38930;52.766;6.884;2022-11-12T07:17:51;2.70;99.90
53045;DHT22;38930;52.766;6.884;2022-11-12T07:20:16;2.70;99.90
53045;DHT22;38930;52.766;6.884;2022-11-12T07:22:42;2.70;99.90
53045;DHT22;38930;52.766;6.884;2022-11-12T07:25:07;2.20;99.90
53045;DHT22;38930;52.766;6.884;2022-11-12T07:27:33;2.70;99.90
53045;DHT22;38930;52.766;6.884;2022-11-12T07:29:59;2.70;99.90
53045;DHT22;38930;52.766;6.884;2022-11-12T07:32:24;2.80;99.90
53045;DHT22;38930;52.766;6.884;2022-11-12T07:34:50;2.70;99.90
53045;DHT22;38930;52.766;6.884;2022-11-12T07:37:15;3.20;99.90
53045;DHT22;38930;52.766;6.884;2022-11-12T07:39:41;2.80;99.90
53045;DHT22;38930;52.766;6.884;2022-11-12T07:42:07;2.60;99.90
53045;DHT22;38930;52.766;6.884;2022-11-12T07:44:32;2.80;99.90
53045;DHT22;38930;52.766;6.884;2022-11-12T07:46:58;2.90;99.90
53045;DHT22;38930;52.766;6.884;2022-11-12T07:49:23;2.90;99.90
53045;DHT22;38930;52.766;6.884;2022-11-12T07:51:49;2.90;99.90
53045;DHT22;38930;52.766;6.884;2022-11-12T07:54:14;2.90;99.90
53045;DHT22;38930;52.766;6.884;2022-11-12T07:56:40;3.00;99.90
53045;DHT22;38930;52.766;6.884;2022-11-12T07:59:06;3.00;99.90
53045;DHT22;38930;52.766;6.884;2022-11-12T08:01:39;3.00;99.90
53045;DHT22;38930;52.766;6.884;2022-11-12T08:04:08;3.10;99.90
53045;DHT22;38930;52.766;6.884;2022-11-12T08:06:34;3.20;99.90
53045;DHT22;38930;52.766;6.884;2022-11-12T08:09:05;3.40;99.90
53045;DHT22;38930;52.766;6.884;2022-11-12T08:11:32;3.40;99.90
53045;DHT22;38930;52.766;6.884;2022-11-12T08:13:57;3.30;99.90
53045;DHT22;38930;52.766;6.884;2022-11-12T08:16:23;3.40;99.90
53045;DHT22;38930;52.766;6.884;2022-11-12T08:18:49;3.70;99.90
53045;DHT22;38930;52.766;6.884;2022-11-12T08:21:16;3.80;99.90
53045;DHT22;38930;52.766;6.884;2022-11-12T08:23:42;3.80;99.90
53045;DHT22;38930;52.766;6.884;2022-11-12T08:26:11;4.00;99.90
53045;DHT22;38930;52.766;6.884;2022-11-12T08:28:37;4.10;99.90
53045;DHT22;38930;52.766;6.884;2022-11-12T08:31:09;4.00;99.90
53045;DHT22;38930;52.766;6.884;2022-11-12T08:33:35;4.30;99.90
53045;DHT22;38930;52.766;6.884;2022-11-12T08:36:05;4.20;99.90
53045;DHT22;38930;52.766;6.884;2022-11-12T08:38:31;4.50;99.90
53045;DHT22;38930;52.766;6.884;2022-11-12T08:41:08;4.60;99.90
53045;DHT22;38930;52.766;6.884;2022-11-12T08:43:34;4.70;99.90
53045;DHT22;38930;52.766;6.884;2022-11-12T08:46:01;4.80;99.90
53045;DHT22;38930;52.766;6.884;2022-11-12T08:48:27;4.90;99.90
53045;DHT22;38930;52.766;6.884;2022-11-12T08:50:54;4.90;99.90
53045;DHT22;38930;52.766;6.884;2022-11-12T08:53:21;5.00;99.90
53045;DHT22;38930;52.766;6.884;2022-11-12T08:55:47;5.20;99.90
53045;DHT22;38930;52.766;6.884;2022-11-12T08:58:13;5.20;99.90
53045;DHT22;38930;52.766;6.884;2022-11-12T09:00:41;5.30;99.90
53045;DHT22;38930;52.766;6.884;2022-11-12T09:03:13;5.40;99.90
53045;DHT22;38930;52.766;6.884;2022-11-12T09:05:39;5.40;99.90
53045;DHT22;38930;52.766;6.884;2022-11-12T09:08:07;5.50;99.90
53045;DHT22;38930;52.766;6.884;2022-11-12T09:10:33;5.60;99.90
53045;DHT22;38930;52.766;6.884;2022-11-12T09:12:59;5.60;99.90
53045;DHT22;38930;52.766;6.884;2022-11-12T09:15:25;5.70;99.90
53045;DHT22;38930;52.766;6.884;2022-11-12T09:17:55;5.80;99.90
53045;DHT22;38930;52.766;6.884;2022-11-12T09:20:22;5.90;99.90
53045;DHT22;38930;52.766;6.884;2022-11-12T09:22:47;6.50;99.90
53045;DHT22;38930;52.766;6.884;2022-11-12T09:25:13;6.10;99.90
53045;DHT22;38930;52.766;6.884;2022-11-12T09:27:39;6.20;99.90
53045;DHT22;38930;52.766;6.884;2022-11-12T09:30:05;6.20;99.90
53045;DHT22;38930;52.766;6.884;2022-11-12T09:32:31;6.30;99.90
53045;DHT22;38930;52.766;6.884;2022-11-12T09:34:57;6.40;99.90
53045;DHT22;38930;52.766;6.884;2022-11-12T09:37:22;6.40;99.90
53045;DHT22;38930;52.766;6.884;2022-11-12T09:39:48;6.50;99.90
53045;DHT22;38930;52.766;6.884;2022-11-12T09:42:19;6.60;99.90
53045;DHT22;38930;52.766;6.884;2022-11-12T09:45:19;6.70;99.90
53045;DHT22;38930;52.766;6.884;2022-11-12T09:47:52;6.80;99.90
53045;DHT22;38930;52.766;6.884;2022-11-12T09:50:35;7.10;99.90
53045;DHT22;38930;52.766;6.884;2022-11-12T09:53:10;7.00;99.90
53045;DHT22;38930;52.766;6.884;2022-11-12T09:55:42;7.10;99.90
53045;DHT22;38930;52.766;6.884;2022-11-12T09:58:15;7.20;99.90
53045;DHT22;38930;52.766;6.884;2022-11-12T10:00:54;7.30;99.90
53045;DHT22;38930;52.766;6.884;2022-11-12T10:03:39;6.90;99.90
53045;DHT22;38930;52.766;6.884;2022-11-12T10:06:11;7.50;99.90
53045;DHT22;38930;52.766;6.884;2022-11-12T10:08:47;7.60;99.90
53045;DHT22;38930;52.766;6.884;2022-11-12T10:11:42;7.70;99.90
53045;DHT22;38930;52.766;6.884;2022-11-12T10:17:07;8.00;99.90
53045;DHT22;38930;52.766;6.884;2022-11-12T10:20:05;7.90;99.90
53045;DHT22;38930;52.766;6.884;2022-11-12T10:23:17;8.00;99.90
53045;DHT22;38930;52.766;6.884;2022-11-12T10:25:46;8.10;99.90
53045;DHT22;38930;52.766;6.884;2022-11-12T10:28:41;8.10;99.90
53045;DHT22;38930;52.766;6.884;2022-11-12T10:31:16;8.20;99.90
53045;DHT22;38930;52.766;6.884;2022-11-12T10:33:42;8.30;99.90
53045;DHT22;38930;52.766;6.884;2022-11-12T10:36:19;8.40;99.90
53045;DHT22;38930;52.766;6.884;2022-11-12T10:38:48;8.50;99.90
53045;DHT22;38930;52.766;6.884;2022-11-12T10:41:25;8.60;99.90
53045;DHT22;38930;52.766;6.884;2022-11-12T10:44:02;8.20;99.90
53045;DHT22;38930;52.766;6.884;2022-11-12T10:46:32;8.80;99.90
53045;DHT22;38930;52.766;6.884;2022-11-12T10:49:01;8.90;99.90
53045;DHT22;38930;52.766;6.884;2022-11-12T10:51:33;9.00;99.90
53045;DHT22;38930;52.766;6.884;2022-11-12T10:56:43;9.30;99.90
53045;DHT22;38930;52.766;6.884;2022-11-12T10:59:25;9.40;99.90
53045;DHT22;38930;52.766;6.884;2022-11-12T11:01:56;9.60;99.90
53045;DHT22;38930;52.766;6.884;2022-11-12T11:04:28;9.60;99.90
53045;DHT22;38930;52.766;6.884;2022-11-12T11:06:59;9.90;99.90
53045;DHT22;38930;52.766;6.884;2022-11-12T11:09:26;9.90;99.90
53045;DHT22;38930;52.766;6.884;2022-11-12T11:11:53;10.00;99.90
53045;DHT22;38930;52.766;6.884;2022-11-12T11:16:52;10.30;99.90
53045;DHT22;38930;52.766;6.884;2022-11-12T11:19:19;10.40;99.90
53045;DHT22;38930;52.766;6.884;2022-11-12T11:34:58;11.10;99.90
53045;DHT22;38930;52.766;6.884;2022-11-12T11:37:41;11.20;99.90
53045;DHT22;38930;52.766;6.884;2022-11-12T11:40:28;11.40;99.90
53045;DHT22;38930;52.766;6.884;2022-11-12T11:48:46;11.70;99.90
53045;DHT22;38930;52.766;6.884;2022-11-12T11:57:22;12.10;99.90
53045;DHT22;38930;52.766;6.884;2022-11-12T12:05:39;12.40;99.90
53045;DHT22;38930;52.766;6.884;2022-11-12T12:11:54;12.00;99.90
53045;DHT22;38930;52.766;6.884;2022-11-12T12:22:43;12.60;99.90
53045;DHT22;38930;52.766;6.884;2022-11-12T12:25:17;12.70;99.90
53045;DHT22;38930;52.766;6.884;2022-11-12T12:28:00;12.70;99.90
53045;DHT22;38930;52.766;6.884;2022-11-12T12:30:28;12.70;99.90
53045;DHT22;38930;52.766;6.884;2022-11-12T12:32:59;13.00;99.90
53045;DHT22;38930;52.766;6.884;2022-11-12T12:35:35;11.90;99.90
53045;DHT22;38930;52.766;6.884;2022-11-12T12:39:33;12.50;99.90
53045;DHT22;38930;52.766;6.884;2022-11-12T12:41:25;12.50;99.90
53045;DHT22;38930;52.766;6.884;2022-11-12T12:44:11;12.50;99.90
53045;DHT22;38930;52.766;6.884;2022-11-12T12:46:52;12.40;99.90
53045;DHT22;38930;52.766;6.884;2022-11-12T12:49:27;12.50;99.90
53045;DHT22;38930;52.766;6.884;2022-11-12T12:51:53;12.90;99.90
53045;DHT22;38930;52.766;6.884;2022-11-12T12:57:01;12.60;99.90
53045;DHT22;38930;52.766;6.884;2022-11-12T12:59:28;12.10;99.90
53045;DHT22;38930;52.766;6.884;2022-11-12T13:01:56;12.50;99.90
53045;DHT22;38930;52.766;6.884;2022-11-12T13:07:42;12.40;99.90
53045;DHT22;38930;52.766;6.884;2022-11-12T13:15:48;12.90;99.90
53045;DHT22;38930;52.766;6.884;2022-11-12T13:21:12;12.30;99.90
53045;DHT22;38930;52.766;6.884;2022-11-12T13:24:07;12.40;99.90
53045;DHT22;38930;52.766;6.884;2022-11-12T13:29:22;12.60;99.90
53045;DHT22;38930;52.766;6.884;2022-11-12T13:31:48;12.30;99.90
53045;DHT22;38930;52.766;6.884;2022-11-12T13:34:30;12.30;99.90
53045;DHT22;38930;52.766;6.884;2022-11-12T13:37:02;12.30;99.90
53045;DHT22;38930;52.766;6.884;2022-11-12T13:39:31;12.90;99.90
53045;DHT22;38930;52.766;6.884;2022-11-12T13:42:01;12.70;99.90
53045;DHT22;38930;52.766;6.884;2022-11-12T13:44:51;12.20;99.90
53045;DHT22;38930;52.766;6.884;2022-11-12T13:47:20;12.80;99.90
53045;DHT22;38930;52.766;6.884;2022-11-12T13:49:47;12.00;99.90
53045;DHT22;38930;52.766;6.884;2022-11-12T13:52:13;12.80;99.90
53045;DHT22;38930;52.766;6.884;2022-11-12T13:54:40;12.30;99.90
53045;DHT22;38930;52.766;6.884;2022-11-12T13:59:49;12.20;99.90
53045;DHT22;38930;52.766;6.884;2022-11-12T14:02:25;12.10;99.90
53045;DHT22;38930;52.766;6.884;2022-11-12T14:04:51;12.10;99.90
53045;DHT22;38930;52.766;6.884;2022-11-12T14:13:39;12.10;99.90
53045;DHT22;38930;52.766;6.884;2022-11-12T14:21:33;12.00;99.90
53045;DHT22;38930;52.766;6.884;2022-11-12T14:24:01;12.50;99.90
53045;DHT22;38930;52.766;6.884;2022-11-12T14:26:41;11.90;99.90
53045;DHT22;38930;52.766;6.884;2022-11-12T14:29:15;11.90;99.90
53045;DHT22;38930;52.766;6.884;2022-11-12T14:31:41;11.60;99.90
53045;DHT22;38930;52.766;6.884;2022-11-12T14:34:27;12.00;99.90
53045;DHT22;38930;52.766;6.884;2022-11-12T14:36:53;12.40;99.90
53045;DHT22;38930;52.766;6.884;2022-11-12T14:39:21;11.90;99.90
53045;DHT22;38930;52.766;6.884;2022-11-12T14:41:47;11.80;99.90
53045;DHT22;38930;52.766;6.884;2022-11-12T14:44:35;11.70;99.90
53045;DHT22;38930;52.766;6.884;2022-11-12T14:47:01;11.70;99.90
53045;DHT22;38930;52.766;6.884;2022-11-12T14:49:39;11.70;99.90
53045;DHT22;38930;52.766;6.884;2022-11-12T14:52:14;11.60;99.90
53045;DHT22;38930;52.766;6.884;2022-11-12T14:54:48;11.50;99.90
53045;DHT22;38930;52.766;6.884;2022-11-12T14:57:21;11.50;99.90
53045;DHT22;38930;52.766;6.884;2022-11-12T14:59:47;12.00;99.90
53045;DHT22;38930;52.766;6.884;2022-11-12T15:02:16;11.30;99.90
53045;DHT22;38930;52.766;6.884;2022-11-12T15:04:49;11.30;99.90
53045;DHT22;38930;52.766;6.884;2022-11-12T15:09:52;10.80;99.90
53045;DHT22;38930;52.766;6.884;2022-11-12T15:12:21;11.00;99.90
53045;DHT22;38930;52.766;6.884;2022-11-12T15:14:47;11.40;99.90
53045;DHT22;38930;52.766;6.884;2022-11-12T15:17:33;10.90;99.90
53045;DHT22;38930;52.766;6.884;2022-11-12T15:20:02;11.50;99.90
53045;DHT22;38930;52.766;6.884;2022-11-12T15:22:28;10.70;99.90
53045;DHT22;38930;52.766;6.884;2022-11-12T15:24:55;10.60;99.90
53045;DHT22;38930;52.766;6.884;2022-11-12T15:30:18;10.50;99.90
53045;DHT22;38930;52.766;6.884;2022-11-12T15:32:44;10.40;99.90
53045;DHT22;38930;52.766;6.884;2022-11-12T15:35:40;10.30;99.90
53045;DHT22;38930;52.766;6.884;2022-11-12T15:38:33;10.20;99.90
53045;DHT22;38930;52.766;6.884;2022-11-12T15:41:00;10.10;99.90
53045;DHT22;38930;52.766;6.884;2022-11-12T15:43:28;10.20;99.90
53045;DHT22;38930;52.766;6.884;2022-11-12T15:45:54;10.00;99.90
53045;DHT22;38930;52.766;6.884;2022-11-12T15:48:20;9.90;99.90
53045;DHT22;38930;52.766;6.884;2022-11-12T15:50:46;9.40;99.90
53045;DHT22;38930;52.766;6.884;2022-11-12T15:53:13;10.30;99.90
53045;DHT22;38930;52.766;6.884;2022-11-12T15:55:39;9.50;99.90
53045;DHT22;38930;52.766;6.884;2022-11-12T15:58:06;9.10;99.90
53045;DHT22;38930;52.766;6.884;2022-11-12T16:00:37;9.50;99.90
53045;DHT22;38930;52.766;6.884;2022-11-12T16:03:14;9.30;99.90
53045;DHT22;38930;52.766;6.884;2022-11-12T16:05:41;9.40;99.90
53045;DHT22;38930;52.766;6.884;2022-11-12T16:08:07;9.40;99.90
53045;DHT22;38930;52.766;6.884;2022-11-12T16:10:32;9.30;99.90
53045;DHT22;38930;52.766;6.884;2022-11-12T16:12:59;9.20;99.90
53045;DHT22;38930;52.766;6.884;2022-11-12T16:15:25;9.20;99.90
53045;DHT22;38930;52.766;6.884;2022-11-12T16:17:52;9.00;99.90
53045;DHT22;38930;52.766;6.884;2022-11-12T16:20:20;9.00;99.90
53045;DHT22;38930;52.766;6.884;2022-11-12T16:22:47;9.00;99.90
53045;DHT22;38930;52.766;6.884;2022-11-12T16:25:13;9.00;99.90
53045;DHT22;38930;52.766;6.884;2022-11-12T16:27:39;8.90;99.90
53045;DHT22;38930;52.766;6.884;2022-11-12T16:30:19;8.90;99.90
53045;DHT22;38930;52.766;6.884;2022-11-12T16:32:46;8.80;99.90
53045;DHT22;38930;52.766;6.884;2022-11-12T16:35:12;8.60;99.90
53045;DHT22;38930;52.766;6.884;2022-11-12T16:37:38;8.70;99.90
53045;DHT22;38930;52.766;6.884;2022-11-12T16:40:06;8.70;99.90
53045;DHT22;38930;52.766;6.884;2022-11-12T16:42:34;8.60;99.90
53045;DHT22;38930;52.766;6.884;2022-11-12T16:44:59;9.00;99.90
53045;DHT22;38930;52.766;6.884;2022-11-12T16:47:25;8.50;99.90
53045;DHT22;38930;52.766;6.884;2022-11-12T16:49:50;8.50;99.90
53045;DHT22;38930;52.766;6.884;2022-11-12T16:52:16;8.40;99.90
53045;DHT22;38930;52.766;6.884;2022-11-12T16:54:42;8.40;99.90
53045;DHT22;38930;52.766;6.884;2022-11-12T16:57:09;8.30;99.90
53045;DHT22;38930;52.766;6.884;2022-11-12T16:59:35;8.10;99.90
53045;DHT22;38930;52.766;6.884;2022-11-12T17:02:01;7.80;99.90
53045;DHT22;38930;52.766;6.884;2022-11-12T17:04:27;8.30;99.90
53045;DHT22;38930;52.766;6.884;2022-11-12T17:06:53;8.20;99.90
53045;DHT22;38930;52.766;6.884;2022-11-12T17:09:18;9.20;99.90
53045;DHT22;38930;52.766;6.884;2022-11-12T17:11:44;8.40;99.90
53045;DHT22;38930;52.766;6.884;2022-11-12T17:14:09;8.10;99.90
53045;DHT22;38930;52.766;6.884;2022-11-12T17:16:35;8.10;99.90
53045;DHT22;38930;52.766;6.884;2022-11-12T17:19:01;8.10;99.90
53045;DHT22;38930;52.766;6.884;2022-11-12T17:21:27;8.00;99.90
53045;DHT22;38930;52.766;6.884;2022-11-12T17:23:54;8.00;99.90
53045;DHT22;38930;52.766;6.884;2022-11-12T17:26:20;8.00;99.90
53045;DHT22;38930;52.766;6.884;2022-11-12T17:28:46;7.50;99.90
53045;DHT22;38930;52.766;6.884;2022-11-12T17:31:14;9.20;99.90